Fourchu: Past 24 Hour Conditions

 

Natashquan Airport

02:00 AM EDT 29 July 2014
This table is a summary of hourly weather conditions for the past 24 hours.
Date / Time
(EDT)
Wind(knots) Conditions Visibility(km) Pressure(kPa) Air tempC) Relative humidity(%) Dew pointC)
29 July 2014
2:00 SE 18 gust 24 Light Rain 2 100.9 17 98 17
1:00 SE 19 Light Rain 2 100.9 17 98 17
0:00 SE 17 gust 23 Light Rain 1 101.0 17 98 17
28 July 2014
23:00 SE 15 gust 23 Light Rain 1 101.0 17 98 17
22:00 SSE 14 gust 24 Light Rain 1 101.0 17 98 17
21:00 SSE 15 gust 23 Light Rain 1 101.1 17 98 17
20:00 SSE 10 gust 17 Light Rain 0.8 101.1 17 97 17
19:00 SE 15 Light Rain 0.6 101.1 17 97 17
18:00 SE 14 gust 19 Mist 3 101.1 18 96 17
17:00 SSE 16 Cloudy 11 101.1 18 93 17
16:00 SSE 13 gust 19 Cloudy 15 101.1 19 90 18
15:00 SSE 12 gust 19 Mist 6 101.1 18 95 17
14:00 SSE 16 Cloudy 13 101.1 19 90 18
13:00 SE 16 gust 21 Mist 10 101.1 19 92 18
12:00 SSE 15 gust 21 Light Rain 8 101.2 18 94 17
11:00 SSE 17 gust 22 Mist 10 101.2 18 93 17
10:00 SSE 15 gust 21 Light Rain 10 101.2 18 94 17
9:00 SE 12 gust 17 Light Rain 5 101.2 17 95 16
8:00 SSE 10 gust 18 Cloudy 15 101.2 18 93 16
7:00 SSE 14 gust 19 Cloudy 15 101.1 18 92 16
6:00 SSE 13 Light Rain 8 101.1 17 95 17
5:00 SSE 14 Light Rain 8 101.0 17 95 17
4:00 SSE 12 gust 17 Cloudy 15 101.0 17 92 16
3:00 SE 13 gust 19 Cloudy 16 101.0 18 92 16
2:00 SSE 10 gust 15 Cloudy 16 101.0 18 93 17
 
Map of Atlantic - Newfoundland marine weather areas Southwestern Grand Banks - 44138 Banquereau - 44139 Tail of the Bank - 44140 Nickerson Bank - 44251 Northeast Burgeo Bank - 44255 Blanc-Sablon Airport Cap Whittle Chevery Natashquan Airport Heath Point Miscou Island Grand Étang Ingonish Beach North Mountain St.Paul Island J.A. Douglas McCurdy Sydney Airport Charlottetown Airport East Point North Cape Argentia Bonavista Burgeo Cape Race Corner Brook Daniel's Harbour Englee Ferolle Point La Scie Port aux Basques Rocky Harbour Sagona Island St. Anthony Airport St. John's Int'l Airport St. Lawrence Stephenville Airport Twillingate Winterland Wreckhouse Cartwright Airport Mary's Harbour Grates Cove Pool's Island Marticot Island Long Pond Îles de la Madeleine Airport
Legend: buoyBuoy land stationLand Station